RYR61LJ LEPA-LEZL
Flight info
| Callsign | RYR61LJ |
|---|---|
| Flight time | 1h 17m |
| Altitude | 37000 |
| Route | EPAMA N733 VLC M985 MAMIS |
| Aircraft | B738/M-SDE2E3FGHIRWXY/LB1 |
Departure
| Time | 2026-05-04 18:23 |
|---|---|
| Airport | Palma de Mallorca Airport (LEPA) |
Arrival
| Time | 2026-05-04 19:40 |
|---|---|
| Airport | Seville Airport (LEZL) |
| Time | Latitude | Longitude | Altitude | Speed | Heading |
|---|---|---|---|---|---|
| 2026-05-04 18:05 | 39.55023 | 2.72741 | 37 ft | 0 kts | 135° |
| 2026-05-04 18:13 | 39.55033 | 2.72727 | 35 ft | 4 kts | 135° |
| 2026-05-04 18:13 | 39.55052 | 2.72703 | 37 ft | 3 kts | 135° |
| 2026-05-04 18:13 | 39.55066 | 2.72650 | 37 ft | 4 kts | 62° |
| 2026-05-04 18:14 | 39.55062 | 2.72639 | 37 ft | 0 kts | 58° |
| 2026-05-04 18:17 | 39.55074 | 2.72664 | 37 ft | 11 kts | 57° |
| 2026-05-04 18:18 | 39.55128 | 2.72777 | 37 ft | 19 kts | 58° |
| 2026-05-04 18:18 | 39.55199 | 2.72930 | 37 ft | 19 kts | 59° |
| 2026-05-04 18:18 | 39.55268 | 2.73074 | 36 ft | 18 kts | 57° |
| 2026-05-04 18:18 | 39.55333 | 2.73210 | 37 ft | 17 kts | 58° |
| 2026-05-04 18:19 | 39.55450 | 2.73458 | 37 ft | 15 kts | 57° |
| 2026-05-04 18:19 | 39.55508 | 2.73563 | 37 ft | 13 kts | 22° |
| 2026-05-04 18:19 | 39.55616 | 2.73510 | 37 ft | 20 kts | 346° |
| 2026-05-04 18:20 | 39.55710 | 2.73619 | 37 ft | 20 kts | 58° |
| 2026-05-04 18:20 | 39.55802 | 2.73810 | 37 ft | 26 kts | 58° |
| 2026-05-04 18:20 | 39.55895 | 2.74006 | 35 ft | 25 kts | 58° |
| 2026-05-04 18:20 | 39.55982 | 2.74191 | 37 ft | 23 kts | 59° |
| 2026-05-04 18:21 | 39.56062 | 2.74361 | 37 ft | 19 kts | 59° |
| 2026-05-04 18:21 | 39.56114 | 2.74442 | 36 ft | 0 kts | 22° |
| 2026-05-04 18:21 | 39.56119 | 2.74444 | 37 ft | 7 kts | 19° |
| 2026-05-04 18:21 | 39.56204 | 2.74418 | 37 ft | 20 kts | 328° |
| 2026-05-04 18:22 | 39.56223 | 2.74259 | 37 ft | 20 kts | 239° |
| 2026-05-04 18:22 | 39.56055 | 2.73907 | 37 ft | 79 kts | 237° |
| 2026-05-04 18:22 | 39.55660 | 2.73068 | 38 ft | 137 kts | 239° |
| 2026-05-04 18:22 | 39.55143 | 2.71923 | 471 ft | 147 kts | 239° |
| 2026-05-04 18:23 | 39.54690 | 2.70791 | 1292 ft | 141 kts | 244° |
| 2026-05-04 18:23 | 39.54222 | 2.69659 | 1926 ft | 144 kts | 235° |
| 2026-05-04 18:23 | 39.53586 | 2.68483 | 2285 ft | 175 kts | 234° |
| 2026-05-04 18:23 | 39.52843 | 2.67112 | 2657 ft | 194 kts | 235° |
| 2026-05-04 18:24 | 39.52057 | 2.65640 | 3147 ft | 202 kts | 236° |
| 2026-05-04 18:24 | 39.51258 | 2.64125 | 3762 ft | 204 kts | 237° |
| 2026-05-04 18:24 | 39.50463 | 2.62601 | 4435 ft | 205 kts | 236° |
| 2026-05-04 18:24 | 39.49669 | 2.61064 | 5166 ft | 206 kts | 237° |
| 2026-05-04 18:25 | 39.48874 | 2.59518 | 5963 ft | 206 kts | 237° |
| 2026-05-04 18:25 | 39.48079 | 2.57966 | 6687 ft | 208 kts | 237° |
| 2026-05-04 18:25 | 39.47278 | 2.56400 | 7396 ft | 209 kts | 237° |
| 2026-05-04 18:25 | 39.46473 | 2.54828 | 8135 ft | 210 kts | 237° |
| 2026-05-04 18:26 | 39.45665 | 2.53249 | 8874 ft | 211 kts | 237° |
| 2026-05-04 18:26 | 39.45076 | 2.51462 | 9256 ft | 231 kts | 259° |
| 2026-05-04 18:26 | 39.44992 | 2.49281 | 9507 ft | 255 kts | 268° |
| 2026-05-04 18:26 | 39.45085 | 2.46937 | 10065 ft | 265 kts | 270° |
| 2026-05-04 18:27 | 39.45219 | 2.44471 | 10329 ft | 287 kts | 271° |
| 2026-05-04 18:27 | 39.45368 | 2.41796 | 10502 ft | 309 kts | 271° |
| 2026-05-04 18:27 | 39.45525 | 2.38946 | 10833 ft | 324 kts | 271° |
| 2026-05-04 18:27 | 39.45684 | 2.36018 | 11462 ft | 328 kts | 271° |
| 2026-05-04 18:28 | 39.45840 | 2.33061 | 12183 ft | 331 kts | 271° |
| 2026-05-04 18:28 | 39.45992 | 2.30082 | 12933 ft | 333 kts | 271° |
| 2026-05-04 18:28 | 39.46142 | 2.27079 | 13672 ft | 336 kts | 271° |
| 2026-05-04 18:28 | 39.46291 | 2.24041 | 14347 ft | 340 kts | 271° |
| 2026-05-04 18:29 | 39.46439 | 2.20981 | 15072 ft | 342 kts | 270° |
| 2026-05-04 18:29 | 39.46585 | 2.17906 | 15791 ft | 344 kts | 270° |
| 2026-05-04 18:29 | 39.46731 | 2.14802 | 16490 ft | 347 kts | 270° |
| 2026-05-04 18:29 | 39.46877 | 2.11679 | 17186 ft | 349 kts | 270° |
| 2026-05-04 18:30 | 39.47170 | 2.05344 | 18517 ft | 356 kts | 270° |
| 2026-05-04 18:30 | 39.47317 | 2.02139 | 19112 ft | 358 kts | 270° |
| 2026-05-04 18:30 | 39.47463 | 1.98917 | 19731 ft | 359 kts | 270° |
| 2026-05-04 18:31 | 39.47610 | 1.95679 | 20336 ft | 361 kts | 270° |
| 2026-05-04 18:31 | 39.47754 | 1.92468 | 20915 ft | 363 kts | 269° |
| 2026-05-04 18:31 | 39.47900 | 1.89194 | 21509 ft | 366 kts | 269° |
| 2026-05-04 18:31 | 39.48048 | 1.85851 | 22076 ft | 368 kts | 269° |
| 2026-05-04 18:32 | 39.48194 | 1.82534 | 22616 ft | 371 kts | 269° |
| 2026-05-04 18:32 | 39.48338 | 1.79237 | 23142 ft | 373 kts | 269° |
| 2026-05-04 18:32 | 39.48485 | 1.75870 | 23640 ft | 376 kts | 269° |
| 2026-05-04 18:32 | 39.48631 | 1.72486 | 23887 ft | 377 kts | 269° |
| 2026-05-04 18:33 | 39.48777 | 1.69083 | 23946 ft | 381 kts | 269° |
| 2026-05-04 18:33 | 39.48923 | 1.65637 | 24339 ft | 384 kts | 269° |
| 2026-05-04 18:33 | 39.49070 | 1.62198 | 24905 ft | 382 kts | 269° |
| 2026-05-04 18:33 | 39.49215 | 1.58764 | 25384 ft | 382 kts | 268° |
| 2026-05-04 18:34 | 39.49359 | 1.55318 | 25774 ft | 385 kts | 268° |
| 2026-05-04 18:34 | 39.49503 | 1.51843 | 26171 ft | 388 kts | 268° |
| 2026-05-04 18:34 | 39.49646 | 1.48350 | 26575 ft | 389 kts | 268° |
| 2026-05-04 18:34 | 39.49789 | 1.44838 | 26967 ft | 391 kts | 268° |
| 2026-05-04 18:35 | 39.49932 | 1.41310 | 27341 ft | 394 kts | 268° |
| 2026-05-04 18:35 | 39.50075 | 1.37765 | 27707 ft | 396 kts | 268° |
| 2026-05-04 18:35 | 39.50217 | 1.34197 | 28062 ft | 398 kts | 268° |
| 2026-05-04 18:35 | 39.50359 | 1.30618 | 28413 ft | 400 kts | 268° |
| 2026-05-04 18:36 | 39.50500 | 1.27015 | 28754 ft | 402 kts | 268° |
| 2026-05-04 18:36 | 39.50642 | 1.23394 | 29085 ft | 404 kts | 268° |
| 2026-05-04 18:36 | 39.50782 | 1.19758 | 29411 ft | 405 kts | 268° |
| 2026-05-04 18:36 | 39.50923 | 1.16114 | 29822 ft | 405 kts | 268° |
| 2026-05-04 18:37 | 39.51062 | 1.12480 | 30282 ft | 403 kts | 268° |
| 2026-05-04 18:37 | 39.51200 | 1.08866 | 30692 ft | 401 kts | 268° |
| 2026-05-04 18:37 | 39.51335 | 1.05264 | 31097 ft | 399 kts | 268° |
| 2026-05-04 18:37 | 39.51469 | 1.01680 | 31477 ft | 398 kts | 268° |
| 2026-05-04 18:38 | 39.51600 | 0.98105 | 31843 ft | 397 kts | 268° |
| 2026-05-04 18:38 | 39.51730 | 0.94541 | 32238 ft | 395 kts | 268° |
| 2026-05-04 18:38 | 39.51859 | 0.90990 | 32599 ft | 394 kts | 268° |
| 2026-05-04 18:38 | 39.51986 | 0.87451 | 32963 ft | 393 kts | 268° |
| 2026-05-04 18:39 | 39.52111 | 0.83922 | 33321 ft | 392 kts | 268° |
| 2026-05-04 18:39 | 39.52236 | 0.80404 | 33692 ft | 390 kts | 268° |
| 2026-05-04 18:39 | 39.52358 | 0.76900 | 34027 ft | 389 kts | 268° |
| 2026-05-04 18:39 | 39.52479 | 0.73402 | 34326 ft | 389 kts | 268° |
| 2026-05-04 18:40 | 39.52599 | 0.69905 | 34567 ft | 389 kts | 268° |
| 2026-05-04 18:40 | 39.52718 | 0.66401 | 34791 ft | 390 kts | 268° |
| 2026-05-04 18:40 | 39.52836 | 0.62895 | 35034 ft | 390 kts | 268° |
| 2026-05-04 18:40 | 39.52954 | 0.59389 | 35277 ft | 390 kts | 268° |
| 2026-05-04 18:41 | 39.53070 | 0.55882 | 35507 ft | 390 kts | 268° |
| 2026-05-04 18:41 | 39.53185 | 0.52375 | 35733 ft | 390 kts | 268° |
| 2026-05-04 18:41 | 39.53300 | 0.48867 | 35962 ft | 390 kts | 269° |
| 2026-05-04 18:41 | 39.53413 | 0.45357 | 36193 ft | 390 kts | 269° |
| 2026-05-04 18:42 | 39.53525 | 0.41848 | 36413 ft | 390 kts | 269° |
| 2026-05-04 18:42 | 39.53637 | 0.38338 | 36633 ft | 390 kts | 269° |
| 2026-05-04 18:42 | 39.53748 | 0.34829 | 36911 ft | 389 kts | 269° |
| 2026-05-04 18:43 | 39.53837 | 0.27764 | 36904 ft | 391 kts | 264° |
| 2026-05-04 18:43 | 39.53382 | 0.20808 | 36912 ft | 383 kts | 262° |
| 2026-05-04 18:44 | 39.52887 | 0.13958 | 36922 ft | 381 kts | 262° |
| 2026-05-04 18:44 | 39.52414 | 0.07124 | 36922 ft | 381 kts | 263° |
| 2026-05-04 18:45 | 39.51956 | 0.00334 | 36923 ft | 381 kts | 263° |
| 2026-05-04 18:45 | 39.51496 | -0.06506 | 36913 ft | 382 kts | 263° |
| 2026-05-04 18:46 | 39.51031 | -0.13366 | 36908 ft | 383 kts | 263° |
| 2026-05-04 18:46 | 39.50561 | -0.20236 | 36914 ft | 384 kts | 263° |
| 2026-05-04 18:47 | 39.50086 | -0.27125 | 36908 ft | 385 kts | 263° |
| 2026-05-04 18:47 | 39.49606 | -0.34030 | 36910 ft | 385 kts | 263° |
| 2026-05-04 18:48 | 39.49121 | -0.40945 | 36916 ft | 386 kts | 263° |
| 2026-05-04 18:48 | 39.47941 | -0.47669 | 36920 ft | 384 kts | 249° |
| 2026-05-04 18:49 | 39.45453 | -0.53783 | 36906 ft | 386 kts | 236° |
| 2026-05-04 18:49 | 39.42191 | -0.59315 | 36912 ft | 387 kts | 234° |
| 2026-05-04 18:50 | 39.38910 | -0.64832 | 36903 ft | 387 kts | 235° |
| 2026-05-04 18:50 | 39.35646 | -0.70359 | 36908 ft | 387 kts | 235° |
| 2026-05-04 18:51 | 39.32390 | -0.75886 | 36894 ft | 386 kts | 235° |
| 2026-05-04 18:51 | 39.29689 | -0.80469 | 36910 ft | 386 kts | 235° |
| 2026-05-04 18:52 | 39.26435 | -0.85975 | 36908 ft | 386 kts | 235° |
| 2026-05-04 18:52 | 39.23172 | -0.91476 | 36916 ft | 386 kts | 235° |
| 2026-05-04 18:53 | 39.19905 | -0.96975 | 36924 ft | 386 kts | 235° |
| 2026-05-04 18:53 | 39.16633 | -1.02475 | 36922 ft | 387 kts | 235° |
| 2026-05-04 18:54 | 39.13356 | -1.07974 | 36931 ft | 387 kts | 235° |
| 2026-05-04 18:54 | 39.10079 | -1.13465 | 36933 ft | 386 kts | 235° |
| 2026-05-04 18:55 | 39.06801 | -1.18949 | 36934 ft | 386 kts | 235° |
| 2026-05-04 18:55 | 39.01881 | -1.27162 | 36951 ft | 386 kts | 235° |
| 2026-05-04 18:56 | 38.98603 | -1.32631 | 36946 ft | 386 kts | 235° |
| 2026-05-04 18:56 | 38.95347 | -1.38059 | 36960 ft | 386 kts | 235° |
| 2026-05-04 18:57 | 38.92069 | -1.43517 | 36961 ft | 386 kts | 235° |
| 2026-05-04 18:57 | 38.88788 | -1.48971 | 36961 ft | 386 kts | 235° |
| 2026-05-04 18:58 | 38.85508 | -1.54413 | 36976 ft | 385 kts | 236° |
| 2026-05-04 18:58 | 38.82224 | -1.59852 | 36964 ft | 385 kts | 236° |
| 2026-05-04 18:59 | 38.78942 | -1.65281 | 36963 ft | 385 kts | 236° |
| 2026-05-04 18:59 | 38.75657 | -1.70705 | 36963 ft | 385 kts | 236° |
| 2026-05-04 19:00 | 38.72372 | -1.76119 | 36967 ft | 385 kts | 236° |
| 2026-05-04 19:00 | 38.69084 | -1.81523 | 36962 ft | 385 kts | 236° |
| 2026-05-04 19:01 | 38.65792 | -1.86921 | 36970 ft | 385 kts | 236° |
| 2026-05-04 19:01 | 38.62503 | -1.92308 | 36977 ft | 384 kts | 236° |
| 2026-05-04 19:02 | 38.59216 | -1.97684 | 36970 ft | 383 kts | 236° |
| 2026-05-04 19:02 | 38.55931 | -2.03051 | 36989 ft | 383 kts | 236° |
| 2026-05-04 19:03 | 38.52648 | -2.08404 | 36980 ft | 382 kts | 236° |
| 2026-05-04 19:03 | 38.49371 | -2.13741 | 36982 ft | 381 kts | 236° |
| 2026-05-04 19:04 | 38.46103 | -2.19061 | 36987 ft | 381 kts | 236° |
| 2026-05-04 19:04 | 38.42839 | -2.24366 | 36996 ft | 380 kts | 236° |
| 2026-05-04 19:05 | 38.39581 | -2.29658 | 36984 ft | 379 kts | 236° |
| 2026-05-04 19:05 | 38.36321 | -2.34932 | 36993 ft | 379 kts | 234° |
| 2026-05-04 19:06 | 38.32740 | -2.39910 | 36998 ft | 382 kts | 231° |
| 2026-05-04 19:06 | 38.29054 | -2.44808 | 36999 ft | 384 kts | 231° |
| 2026-05-04 19:07 | 38.25361 | -2.49728 | 37006 ft | 385 kts | 231° |
| 2026-05-04 19:07 | 38.21663 | -2.54672 | 37008 ft | 385 kts | 231° |
| 2026-05-04 19:08 | 38.17963 | -2.59618 | 37001 ft | 386 kts | 231° |
| 2026-05-04 19:08 | 38.14284 | -2.64530 | 37002 ft | 386 kts | 231° |
| 2026-05-04 19:09 | 38.10585 | -2.69461 | 37018 ft | 385 kts | 231° |
| 2026-05-04 19:09 | 38.06887 | -2.74384 | 37012 ft | 386 kts | 231° |
| 2026-05-04 19:10 | 38.03184 | -2.79307 | 37005 ft | 386 kts | 231° |
| 2026-05-04 19:10 | 37.99478 | -2.84227 | 37015 ft | 385 kts | 231° |
| 2026-05-04 19:11 | 37.95776 | -2.89131 | 36994 ft | 384 kts | 231° |
| 2026-05-04 19:11 | 37.92075 | -2.94019 | 37003 ft | 385 kts | 231° |
| 2026-05-04 19:12 | 37.86478 | -3.01396 | 37008 ft | 389 kts | 231° |
| 2026-05-04 19:13 | 37.82714 | -3.06350 | 36998 ft | 391 kts | 231° |
| 2026-05-04 19:13 | 37.78937 | -3.11313 | 36993 ft | 392 kts | 231° |
| 2026-05-04 19:14 | 37.75227 | -3.16343 | 36989 ft | 387 kts | 239° |
| 2026-05-04 19:14 | 37.73993 | -3.19316 | 37018 ft | 380 kts | 250° |
| 2026-05-04 19:14 | 37.73219 | -3.22501 | 36756 ft | 381 kts | 261° |
| 2026-05-04 19:14 | 37.72942 | -3.25825 | 36500 ft | 380 kts | 265° |
| 2026-05-04 19:15 | 37.72773 | -3.29153 | 36109 ft | 379 kts | 265° |
| 2026-05-04 19:15 | 37.72625 | -3.32469 | 35682 ft | 379 kts | 265° |
| 2026-05-04 19:15 | 37.72471 | -3.35793 | 35285 ft | 379 kts | 265° |
| 2026-05-04 19:15 | 37.72306 | -3.39125 | 34871 ft | 380 kts | 265° |
| 2026-05-04 19:16 | 37.72133 | -3.42414 | 34465 ft | 381 kts | 265° |
| 2026-05-04 19:16 | 37.71947 | -3.45793 | 34036 ft | 381 kts | 265° |
| 2026-05-04 19:16 | 37.71761 | -3.49138 | 33585 ft | 382 kts | 265° |
| 2026-05-04 19:16 | 37.71573 | -3.52493 | 33121 ft | 384 kts | 265° |
| 2026-05-04 19:17 | 37.71384 | -3.55862 | 32685 ft | 385 kts | 265° |
| 2026-05-04 19:17 | 37.71195 | -3.59192 | 32270 ft | 386 kts | 265° |
| 2026-05-04 19:17 | 37.70999 | -3.62628 | 31838 ft | 388 kts | 265° |
| 2026-05-04 19:17 | 37.70806 | -3.65968 | 31260 ft | 386 kts | 265° |
| 2026-05-04 19:18 | 37.70610 | -3.69358 | 30463 ft | 389 kts | 265° |
| 2026-05-04 19:18 | 37.70414 | -3.72727 | 30054 ft | 384 kts | 265° |
| 2026-05-04 19:18 | 37.70212 | -3.76189 | 29574 ft | 396 kts | 265° |
| 2026-05-04 19:18 | 37.70005 | -3.79708 | 29080 ft | 407 kts | 265° |
| 2026-05-04 19:19 | 37.69794 | -3.83285 | 28611 ft | 409 kts | 265° |
| 2026-05-04 19:19 | 37.69585 | -3.86814 | 28173 ft | 408 kts | 266° |
| 2026-05-04 19:19 | 37.69372 | -3.90385 | 27709 ft | 408 kts | 265° |
| 2026-05-04 19:19 | 37.69159 | -3.93954 | 27245 ft | 408 kts | 265° |
| 2026-05-04 19:20 | 37.68944 | -3.97534 | 26782 ft | 409 kts | 265° |
| 2026-05-04 19:20 | 37.68727 | -4.01123 | 26319 ft | 411 kts | 265° |
| 2026-05-04 19:20 | 37.68508 | -4.04727 | 25864 ft | 413 kts | 265° |
| 2026-05-04 19:20 | 37.68287 | -4.08346 | 25402 ft | 415 kts | 265° |
| 2026-05-04 19:21 | 37.68064 | -4.11986 | 24940 ft | 417 kts | 265° |
| 2026-05-04 19:21 | 37.67838 | -4.15647 | 24481 ft | 420 kts | 265° |
| 2026-05-04 19:21 | 37.67610 | -4.19329 | 24015 ft | 422 kts | 265° |
| 2026-05-04 19:21 | 37.67379 | -4.23039 | 23538 ft | 425 kts | 265° |
| 2026-05-04 19:22 | 37.67146 | -4.26761 | 22973 ft | 423 kts | 265° |
| 2026-05-04 19:22 | 37.66920 | -4.30353 | 22474 ft | 403 kts | 265° |
| 2026-05-04 19:22 | 37.66697 | -4.33883 | 22032 ft | 405 kts | 265° |
| 2026-05-04 19:22 | 37.66470 | -4.37446 | 21587 ft | 409 kts | 265° |
| 2026-05-04 19:23 | 37.66243 | -4.41006 | 21101 ft | 403 kts | 265° |
| 2026-05-04 19:23 | 37.66018 | -4.44504 | 20661 ft | 398 kts | 265° |
| 2026-05-04 19:23 | 37.65794 | -4.47988 | 20223 ft | 400 kts | 265° |
| 2026-05-04 19:23 | 37.65569 | -4.51461 | 19772 ft | 392 kts | 265° |
| 2026-05-04 19:24 | 37.65349 | -4.54853 | 19343 ft | 383 kts | 265° |
| 2026-05-04 19:24 | 37.65133 | -4.58164 | 18921 ft | 374 kts | 265° |
| 2026-05-04 19:24 | 37.64920 | -4.61401 | 18510 ft | 367 kts | 265° |
| 2026-05-04 19:24 | 37.64711 | -4.64576 | 18078 ft | 361 kts | 264° |
| 2026-05-04 19:25 | 37.64502 | -4.67732 | 17638 ft | 360 kts | 265° |
| 2026-05-04 19:25 | 37.64293 | -4.70876 | 17201 ft | 358 kts | 264° |
| 2026-05-04 19:25 | 37.64085 | -4.74001 | 16794 ft | 357 kts | 264° |
| 2026-05-04 19:25 | 37.63876 | -4.77124 | 16385 ft | 357 kts | 264° |
| 2026-05-04 19:26 | 37.63666 | -4.80239 | 15978 ft | 357 kts | 264° |
| 2026-05-04 19:26 | 37.63456 | -4.83349 | 15541 ft | 354 kts | 264° |
| 2026-05-04 19:26 | 37.63248 | -4.86432 | 15013 ft | 352 kts | 264° |
| 2026-05-04 19:26 | 37.63039 | -4.89498 | 14397 ft | 351 kts | 264° |
| 2026-05-04 19:27 | 37.62830 | -4.92563 | 13776 ft | 350 kts | 264° |
| 2026-05-04 19:27 | 37.62620 | -4.95616 | 13152 ft | 348 kts | 265° |
| 2026-05-04 19:27 | 37.62415 | -4.98609 | 12667 ft | 334 kts | 265° |
| 2026-05-04 19:27 | 37.62221 | -5.01416 | 12534 ft | 310 kts | 265° |
| 2026-05-04 19:28 | 37.62040 | -5.04034 | 12398 ft | 290 kts | 264° |
| 2026-05-04 19:28 | 37.61870 | -5.06491 | 12257 ft | 273 kts | 264° |
| 2026-05-04 19:28 | 37.61705 | -5.08847 | 11826 ft | 268 kts | 264° |
| 2026-05-04 19:28 | 37.61542 | -5.11185 | 11288 ft | 268 kts | 264° |
| 2026-05-04 19:29 | 37.61378 | -5.13522 | 10768 ft | 267 kts | 264° |
| 2026-05-04 19:29 | 37.61215 | -5.15853 | 10270 ft | 266 kts | 264° |
| 2026-05-04 19:29 | 37.61052 | -5.18162 | 9912 ft | 261 kts | 264° |
| 2026-05-04 19:29 | 37.60892 | -5.20433 | 9599 ft | 259 kts | 264° |
| 2026-05-04 19:30 | 37.60731 | -5.22695 | 9294 ft | 260 kts | 264° |
| 2026-05-04 19:30 | 37.60519 | -5.24974 | 8992 ft | 264 kts | 256° |
| 2026-05-04 19:30 | 37.59768 | -5.27090 | 8709 ft | 266 kts | 242° |
| 2026-05-04 19:30 | 37.58862 | -5.29124 | 8417 ft | 266 kts | 242° |
| 2026-05-04 19:31 | 37.57967 | -5.31131 | 8124 ft | 265 kts | 242° |
| 2026-05-04 19:31 | 37.57074 | -5.33134 | 7822 ft | 258 kts | 242° |
| 2026-05-04 19:31 | 37.56211 | -5.35076 | 7543 ft | 249 kts | 243° |
| 2026-05-04 19:31 | 37.55378 | -5.36955 | 7278 ft | 243 kts | 243° |
| 2026-05-04 19:32 | 37.54561 | -5.38803 | 7025 ft | 241 kts | 243° |
| 2026-05-04 19:32 | 37.53743 | -5.40655 | 6772 ft | 243 kts | 243° |
| 2026-05-04 19:32 | 37.52921 | -5.42518 | 6518 ft | 244 kts | 243° |
| 2026-05-04 19:32 | 37.52097 | -5.44384 | 6222 ft | 242 kts | 243° |
| 2026-05-04 19:33 | 37.51279 | -5.46236 | 5766 ft | 242 kts | 243° |
| 2026-05-04 19:33 | 37.50460 | -5.48090 | 5334 ft | 242 kts | 243° |
| 2026-05-04 19:33 | 37.49657 | -5.49905 | 5145 ft | 231 kts | 243° |
| 2026-05-04 19:33 | 37.48882 | -5.51655 | 4827 ft | 228 kts | 244° |
| 2026-05-04 19:34 | 37.48112 | -5.53398 | 4408 ft | 228 kts | 244° |
| 2026-05-04 19:34 | 37.47349 | -5.55122 | 4028 ft | 223 kts | 244° |
| 2026-05-04 19:34 | 37.46594 | -5.56828 | 3509 ft | 223 kts | 244° |
| 2026-05-04 19:34 | 37.45842 | -5.58529 | 3100 ft | 220 kts | 243° |
| 2026-05-04 19:35 | 37.45096 | -5.60212 | 3028 ft | 218 kts | 244° |
| 2026-05-04 19:35 | 37.44390 | -5.61802 | 2973 ft | 197 kts | 243° |
| 2026-05-04 19:35 | 37.43750 | -5.63238 | 2964 ft | 182 kts | 244° |
| 2026-05-04 19:35 | 37.43145 | -5.64599 | 2976 ft | 175 kts | 244° |
| 2026-05-04 19:36 | 37.42550 | -5.65939 | 2992 ft | 176 kts | 244° |
| 2026-05-04 19:36 | 37.41992 | -5.67327 | 2996 ft | 179 kts | 256° |
| 2026-05-04 19:36 | 37.41945 | -5.68865 | 2970 ft | 174 kts | 274° |
| 2026-05-04 19:36 | 37.41919 | -5.70383 | 2748 ft | 172 kts | 268° |
| 2026-05-04 19:37 | 37.41879 | -5.71858 | 2519 ft | 165 kts | 270° |
| 2026-05-04 19:37 | 37.41863 | -5.73275 | 2312 ft | 159 kts | 271° |
| 2026-05-04 19:37 | 37.41855 | -5.74649 | 2125 ft | 156 kts | 270° |
| 2026-05-04 19:37 | 37.41848 | -5.76018 | 1909 ft | 156 kts | 269° |
| 2026-05-04 19:38 | 37.41844 | -5.76913 | 1772 ft | 154 kts | 269° |
| 2026-05-04 19:38 | 37.41838 | -5.78241 | 1562 ft | 149 kts | 269° |
| 2026-05-04 19:38 | 37.41833 | -5.79502 | 1399 ft | 138 kts | 268° |
| 2026-05-04 19:38 | 37.41827 | -5.80710 | 1187 ft | 136 kts | 268° |
| 2026-05-04 19:39 | 37.41822 | -5.81900 | 1011 ft | 136 kts | 267° |
| 2026-05-04 19:39 | 37.41818 | -5.83087 | 845 ft | 136 kts | 267° |
| 2026-05-04 19:39 | 37.41836 | -5.84266 | 674 ft | 134 kts | 266° |
| 2026-05-04 19:39 | 37.41825 | -5.85443 | 439 ft | 135 kts | 264° |
| 2026-05-04 19:40 | 37.41811 | -5.86619 | 283 ft | 133 kts | 263° |
| 2026-05-04 19:40 | 37.41796 | -5.87794 | 112 ft | 133 kts | 265° |
| 2026-05-04 19:40 | 37.41795 | -5.88710 | 102 ft | 51 kts | 270° |
| 2026-05-04 19:40 | 37.41791 | -5.89116 | 97 ft | 23 kts | 280° |
| 2026-05-04 19:41 | 37.41873 | -5.89276 | 94 ft | 19 kts | 326° |
| 2026-05-04 19:41 | 37.41950 | -5.89337 | 93 ft | 13 kts | 328° |
| 2026-05-04 19:41 | 37.42022 | -5.89406 | 94 ft | 12 kts | 313° |
| 2026-05-04 19:41 | 37.42076 | -5.89480 | 93 ft | 11 kts | 314° |
| 2026-05-04 19:42 | 37.42137 | -5.89556 | 93 ft | 16 kts | 314° |
| 2026-05-04 19:42 | 37.42219 | -5.89662 | 92 ft | 17 kts | 315° |
| 2026-05-04 19:42 | 37.42281 | -5.89764 | 94 ft | 11 kts | 298° |
| 2026-05-04 19:42 | 37.42316 | -5.89838 | 95 ft | 7 kts | 319° |
| 2026-05-04 19:43 | 37.42318 | -5.89840 | 92 ft | 0 kts | 319° |
| 2026-05-04 19:45 | 37.42303 | -5.89850 | 92 ft | 0 kts | 345° |